^^
Station Historical Data
Daily Summary for September 15, 2017 Units:  English    Metric   Both
« Previous Day
Next Day »
Daily Weekly Monthly Yearly Custom
  High: Low: Average:
Temperature: 80.8 °F 63.2 °F 71.8 °F
Dew Point: 68.6 °F 62.0 °F 65.5 °F
Humidity: 97% 61% 82%
Wind Speed: 5.0mph 0.0mph 0.5mph
Wind Gust: 8.0mph - -
Wind- - WSW
Pressure: 30.11 in 29.95 in -
Precipitation: 0.00 in    
Historical Graphs
 
 
Tabular Data for September 15, 2017
Time Temperature Dew Point Pressure Wind Wind Speed Wind Gust Humidity Rainfall Rate (Hourly) Conditions
00:00 68.7 °F 66.3 °F 29.95 in Calm     92% 0.00 in RA
00:15 68.6 °F 66.2 °F 29.95 in South 1.0 mph 2.0 mph 92% 0.00 in BKN
00:30 68.7 °F 66.3 °F 29.95 in Calm   2.0 mph 92% 0.00 in BKN
00:45 68.5 °F 65.8 °F 29.95 in Calm   1.0 mph 91% 0.00 in BKN
01:00 68.3 °F 65.6 °F 29.95 in Calm   1.0 mph 91% 0.00 in BKN
01:15 67.6 °F 65.2 °F 29.95 in Calm     92% 0.00 in BKN
01:30 67.4 °F 65.3 °F 29.95 in Calm     93% 0.00 in BKN
01:45 67.2 °F 65.1 °F 29.96 in Calm   1.0 mph 93% 0.00 in BKN
02:00 67.2 °F 65.1 °F 29.96 in Calm   1.0 mph 93% 0.00 in BKN
02:15 67.1 °F 65.0 °F 29.96 in Calm     93% 0.00 in BKN
02:30 66.9 °F 64.8 °F 29.96 in Calm     93% 0.00 in BKN
02:45 66.9 °F 64.8 °F 29.96 in Calm   1.0 mph 93% 0.00 in BKN
03:00 66.8 °F 64.7 °F 29.96 in Calm   3.0 mph 93% 0.00 in BKN
03:15 66.6 °F 64.5 °F 29.96 in Calm   2.0 mph 93% 0.00 in SCT
03:30 66.3 °F 64.5 °F 29.96 in Calm   2.0 mph 94% 0.00 in SCT
03:45 66.1 °F 64.3 °F 29.96 in Calm   1.0 mph 94% 0.00 in SCT
04:00 65.9 °F 64.1 °F 29.96 in Calm   3.0 mph 94% 0.00 in SCT
04:15 65.8 °F 64.0 °F 29.96 in Calm   3.0 mph 94% 0.00 in CLR
04:30 65.7 °F 64.0 °F 29.96 in SSW 1.0 mph 3.0 mph 94% 0.00 in CLR
04:45 65.6 °F 63.8 °F 29.97 in Calm   3.0 mph 94% 0.00 in CLR
05:00 65.5 °F 63.7 °F 29.97 in Calm   3.0 mph 94% 0.00 in CLR
05:15 65.3 °F 63.8 °F 29.97 in Calm   1.0 mph 95% 0.00 in CLR
05:30 65.1 °F 63.6 °F 29.98 in Calm   2.0 mph 95% 0.00 in CLR
05:45 64.9 °F 63.4 °F 29.98 in Calm     95% 0.00 in CLR
06:00 64.5 °F 63.0 °F 29.99 in Calm   1.0 mph 95% 0.00 in CLR
06:15 64.1 °F 62.6 °F 29.99 in Calm     95% 0.00 in CLR
06:30 63.7 °F 62.3 °F 30.00 in Calm     95% 0.00 in CLR
06:45 63.6 °F 62.4 °F 30.01 in Calm     96% 0.00 in CLR
07:00 63.3 °F 62.1 °F 30.01 in Calm     96% 0.00 in CLR
07:15 63.2 °F 62.0 °F 30.01 in Calm     96% 0.00 in CLR
07:30 63.6 °F 62.4 °F 30.02 in Calm     96% 0.00 in CLR
07:45 63.9 °F 63.0 °F 30.02 in Calm     97% 0.00 in CLR
08:00 64.2 °F 63.0 °F 30.03 in Calm   1.0 mph 96% 0.00 in CLR
08:15 64.5 °F 63.3 °F 30.03 in Calm     96% 0.00 in CLR
08:30 65.6 °F 64.4 °F 30.03 in Calm   2.0 mph 96% 0.00 in CLR
08:45 67.5 °F 65.4 °F 30.04 in Calm   1.0 mph 93% 0.00 in CLR
08:59 70.1 °F 66.1 °F 30.05 in Calm   1.0 mph 87% 0.00 in CLR
09:15 72.1 °F 66.0 °F 30.05 in Calm     81% 0.00 in FEW
09:30 72.3 °F 66.1 °F 30.05 in Calm   2.0 mph 81% 0.00 in FEW
09:45 72.5 °F 66.3 °F 30.06 in WSW 2.0 mph 4.0 mph 81% 0.00 in FEW
10:00 72.0 °F 66.2 °F 30.06 in Calm   4.0 mph 82% 0.00 in FEW
10:15 73.1 °F 66.2 °F 30.06 in WSW 1.0 mph 4.0 mph 79% 0.00 in FEW
10:30 73.4 °F 65.4 °F 30.06 in WNW 2.0 mph 5.0 mph 76% 0.00 in FEW
10:45 73.5 °F 65.1 °F 30.06 in West 1.0 mph 4.0 mph 75% 0.00 in FEW
11:00 74.8 °F 65.6 °F 30.06 in West 1.0 mph 5.0 mph 73% 0.00 in FEW
11:15 74.7 °F 65.0 °F 30.07 in WNW 2.0 mph 4.0 mph 72% 0.00 in SCT
11:30 75.0 °F 64.9 °F 30.06 in WSW 3.0 mph 7.0 mph 71% 0.00 in SCT
11:45 75.3 °F 66.0 °F 30.06 in WSW 2.0 mph 6.0 mph 73% 0.00 in SCT
12:00 76.5 °F 66.4 °F 30.06 in WNW 1.0 mph 7.0 mph 71% 0.00 in SCT
12:15 76.4 °F 66.3 °F 30.06 in West 1.0 mph 7.0 mph 71% 0.00 in BKN
12:30 77.7 °F 66.7 °F 30.06 in SW 1.0 mph 5.0 mph 69% 0.00 in BKN
12:45 77.4 °F 65.1 °F 30.06 in West 2.0 mph 8.0 mph 66% 0.00 in BKN
13:00 77.4 °F 64.7 °F 30.06 in WNW 2.0 mph 6.0 mph 65% 0.00 in BKN
13:15 78.5 °F 65.3 °F 30.05 in WSW 3.0 mph 6.0 mph 64% 0.00 in BKN
13:30 79.6 °F 66.4 °F 30.04 in SW 1.0 mph 6.0 mph 64% 0.00 in BKN
13:45 80.4 °F 66.2 °F 30.04 in SW 2.0 mph 8.0 mph 62% 0.00 in BKN
14:00 79.6 °F 66.3 °F 30.04 in Calm   6.0 mph 64% 0.00 in BKN
14:15 80.3 °F 66.6 °F 30.04 in SW 1.0 mph 4.0 mph 63% 0.00 in BKN
14:30 79.4 °F 65.7 °F 30.03 in SSW 2.0 mph 6.0 mph 63% 0.00 in BKN
14:45 79.4 °F 66.6 °F 30.03 in Calm   8.0 mph 65% 0.00 in BKN
15:00 80.1 °F 67.3 °F 30.03 in WSW 1.0 mph 3.0 mph 65% 0.00 in BKN
15:15 80.8 °F 67.5 °F 30.03 in SW 5.0 mph 7.0 mph 64% 0.00 in BKN
15:30 79.8 °F 65.7 °F 30.03 in WSW 1.0 mph 7.0 mph 62% 0.00 in BKN
15:45 80.6 °F 65.9 °F 30.03 in SSW 1.0 mph 5.0 mph 61% 0.00 in BKN
16:00 79.5 °F 66.7 °F 30.03 in SSW 1.0 mph 5.0 mph 65% 0.00 in BKN
16:15 80.7 °F 66.9 °F 30.03 in South 2.0 mph 5.0 mph 63% 0.00 in BKN
16:30 80.8 °F 67.1 °F 30.04 in Calm   4.0 mph 63% 0.00 in BKN
16:45 80.2 °F 67.8 °F 30.04 in Calm   2.0 mph 66% 0.00 in BKN
17:00 79.5 °F 67.2 °F 30.04 in Calm     66% 0.00 in BKN
17:15 78.6 °F 68.0 °F 30.04 in Calm   1.0 mph 70% 0.00 in OVC
17:30 77.8 °F 68.5 °F 30.04 in Calm   1.0 mph 73% 0.00 in OVC
17:45 77.3 °F 68.0 °F 30.05 in Calm   1.0 mph 73% 0.00 in OVC
17:59 77.2 °F 67.9 °F 30.05 in Calm     73% 0.00 in
18:15 78.0 °F 68.6 °F 30.05 in Calm     73% 0.00 in OVC
18:30 79.0 °F 68.0 °F 30.06 in Calm   2.0 mph 69% 0.00 in OVC
18:45 77.9 °F 68.1 °F 30.06 in Calm   2.0 mph 72% 0.00 in OVC
19:00 75.6 °F 67.1 °F 30.07 in Calm   1.0 mph 75% 0.00 in OVC
19:15 74.5 °F 66.8 °F 30.07 in Calm   1.0 mph 77% 0.00 in SCT
19:30 73.6 °F 66.7 °F 30.07 in Calm     79% 0.00 in SCT
19:45 73.1 °F 66.6 °F 30.08 in Calm     80% 0.00 in SCT
20:00 72.5 °F 66.3 °F 30.08 in Calm   1.0 mph 81% 0.00 in SCT
20:15 72.2 °F 66.4 °F 30.08 in Calm   1.0 mph 82% 0.00 in FEW
20:30 71.8 °F 66.4 °F 30.08 in Calm   1.0 mph 83% 0.00 in FEW
20:45 71.4 °F 66.0 °F 30.08 in Calm   1.0 mph 83% 0.00 in FEW
21:00 71.1 °F 66.0 °F 30.09 in Calm   1.0 mph 84% 0.00 in FEW
21:15 70.8 °F 65.8 °F 30.09 in Calm   1.0 mph 84% 0.00 in FEW
21:30 70.6 °F 65.5 °F 30.09 in Calm   1.0 mph 84% 0.00 in FEW
21:45 70.6 °F 65.9 °F 30.09 in Calm   1.0 mph 85% 0.00 in FEW
22:00 70.5 °F 65.8 °F 30.09 in Calm   1.0 mph 85% 0.00 in FEW
22:15 70.0 °F 65.6 °F 30.09 in Calm   1.0 mph 86% 0.00 in FEW
22:30 69.6 °F 65.6 °F 30.10 in Calm     87% 0.00 in FEW
22:45 69.4 °F 65.4 °F 30.10 in Calm   1.0 mph 87% 0.00 in FEW
23:00 69.1 °F 65.4 °F 30.10 in Calm     88% 0.00 in FEW
23:30 68.8 °F 65.4 °F 30.11 in Calm   1.0 mph 89% 0.00 in FEW
23:45 68.3 °F 65.3 °F 30.10 in Calm   2.0 mph 90% 0.00 in FEW
TarryTown NY Weather
Compliments of Weather Underground - 1.5 mb